createdAt,value
2022-11-07T00:02:06.160Z,10.30
2022-11-07T00:04:34.555Z,12.00
2022-11-07T00:07:02.827Z,10.30
2022-11-07T00:09:32.158Z,11.50
2022-11-07T00:12:00.070Z,10.30
2022-11-07T00:14:28.069Z,10.30
2022-11-07T00:16:55.987Z,11.50
2022-11-07T00:19:24.158Z,11.60
2022-11-07T00:21:52.124Z,10.40
2022-11-07T00:24:20.597Z,10.40
2022-11-07T00:26:49.895Z,10.40
2022-11-07T00:29:19.622Z,10.40
2022-11-07T00:31:48.904Z,10.40
2022-11-07T00:34:17.213Z,10.40
2022-11-07T00:36:45.153Z,10.50
2022-11-07T00:39:13.097Z,10.50
2022-11-07T00:41:41.290Z,10.50
2022-11-07T00:44:10.611Z,11.00
2022-11-07T00:46:38.584Z,12.30
2022-11-07T00:49:06.519Z,10.50
2022-11-07T00:51:34.484Z,10.50
2022-11-07T00:54:03.860Z,10.50
2022-11-07T00:56:31.846Z,10.50
2022-11-07T00:59:01.019Z,10.60
2022-11-07T01:01:32.327Z,11.80
2022-11-07T01:04:18.143Z,10.60
2022-11-07T01:06:47.368Z,10.60
2022-11-07T01:09:17.705Z,10.60
2022-11-07T01:11:47.659Z,10.60
2022-11-07T01:14:17.901Z,10.60
2022-11-07T01:16:47.686Z,10.60
2022-11-07T01:19:16.161Z,10.60
2022-11-07T01:21:44.418Z,12.50
2022-11-07T01:24:13.770Z,10.70
2022-11-07T01:26:43.078Z,10.70
2022-11-07T01:29:11.442Z,12.00
2022-11-07T01:31:39.319Z,10.70
2022-11-07T01:34:08.685Z,10.70
2022-11-07T01:36:36.600Z,12.30
2022-11-07T01:39:06.029Z,10.70
2022-11-07T01:41:36.166Z,10.70
2022-11-07T01:44:25.130Z,10.70
2022-11-07T01:46:56.338Z,10.70
2022-11-07T01:49:29.681Z,10.70
2022-11-07T01:52:03.978Z,10.70
2022-11-07T01:54:34.995Z,10.70
2022-11-07T01:57:07.913Z,10.70
2022-11-07T01:59:37.725Z,10.70
2022-11-07T02:02:06.581Z,10.70
2022-11-07T02:04:36.956Z,10.70
2022-11-07T02:07:13.458Z,10.70
2022-11-07T02:09:42.480Z,10.70
2022-11-07T02:12:10.837Z,10.70
2022-11-07T02:14:38.777Z,10.70
2022-11-07T02:17:06.834Z,10.70
2022-11-07T02:19:38.916Z,10.70
2022-11-07T02:22:15.278Z,10.70
2022-11-07T02:24:44.539Z,11.10
2022-11-07T02:27:17.952Z,11.60
2022-11-07T02:29:49.367Z,10.70
2022-11-07T02:32:17.338Z,10.60
2022-11-07T02:34:45.218Z,10.60
2022-11-07T02:37:21.966Z,10.60
2022-11-07T02:39:51.721Z,10.70
2022-11-07T02:42:19.842Z,10.70
2022-11-07T02:44:48.525Z,10.70
2022-11-07T02:47:17.126Z,10.70
2022-11-07T02:49:45.023Z,10.80
2022-11-07T02:52:12.915Z,11.40
2022-11-07T02:54:40.811Z,11.90
2022-11-07T02:57:10.106Z,10.70
2022-11-07T02:59:38.013Z,10.70
2022-11-07T03:02:05.976Z,10.80
2022-11-07T03:04:33.958Z,10.80
2022-11-07T03:07:01.844Z,10.80
2022-11-07T03:09:29.712Z,10.80
2022-11-07T03:11:57.600Z,11.60
2022-11-07T03:14:26.886Z,10.80
2022-11-07T03:16:54.739Z,10.80
2022-11-07T03:19:22.596Z,10.80
2022-11-07T03:21:51.033Z,10.90
2022-11-07T03:24:19.237Z,10.90
2022-11-07T03:26:47.130Z,12.60
2022-11-07T03:29:15.198Z,11.80
2022-11-07T03:31:44.386Z,10.90
2022-11-07T03:34:12.449Z,10.90
2022-11-07T03:36:40.331Z,10.90
2022-11-07T03:39:08.362Z,10.90
2022-11-07T03:41:36.250Z,10.90
2022-11-07T03:44:04.254Z,10.90
2022-11-07T03:46:32.173Z,10.90
2022-11-07T03:49:01.390Z,10.90
2022-11-07T03:51:29.273Z,10.80
2022-11-07T03:53:57.146Z,10.80
2022-11-07T03:56:25.025Z,10.80
2022-11-07T03:58:52.925Z,10.70
2022-11-07T04:01:20.944Z,10.70
2022-11-07T04:03:51.681Z,10.70
2022-11-07T04:06:24.653Z,10.70
2022-11-07T04:08:52.709Z,10.60
2022-11-07T04:11:34.459Z,10.60
2022-11-07T04:14:19.637Z,10.60
2022-11-07T04:17:05.114Z,11.10
2022-11-07T04:19:33.055Z,11.10
2022-11-07T04:22:02.281Z,10.60
2022-11-07T04:24:30.197Z,10.60
2022-11-07T04:27:15.594Z,10.60
2022-11-07T04:29:43.503Z,10.70
2022-11-07T04:32:11.492Z,10.70
2022-11-07T04:34:39.614Z,10.70
2022-11-07T04:37:08.864Z,10.70
2022-11-07T04:39:36.797Z,10.90
2022-11-07T04:42:04.796Z,10.60
2022-11-07T04:44:32.771Z,10.70
2022-11-07T04:47:00.703Z,10.70
2022-11-07T04:49:28.633Z,10.70
2022-11-07T04:51:57.829Z,10.70
2022-11-07T04:54:27.118Z,10.70
2022-11-07T04:56:55.000Z,10.70
2022-11-07T04:59:22.936Z,10.70
2022-11-07T05:01:51.195Z,10.70
2022-11-07T05:04:19.154Z,10.70
2022-11-07T05:06:47.381Z,10.80
2022-11-07T05:09:17.759Z,10.80
2022-11-07T05:11:47.107Z,10.90
2022-11-07T05:14:15.120Z,10.90
2022-11-07T05:16:44.420Z,10.90
2022-11-07T05:19:16.187Z,11.90
2022-11-07T05:21:44.338Z,12.20
2022-11-07T05:24:12.009Z,10.90
2022-11-07T05:26:40.161Z,12.20
2022-11-07T05:29:11.197Z,10.90
2022-11-07T05:31:39.082Z,12.10
2022-11-07T05:34:10.845Z,10.80
2022-11-07T05:36:41.456Z,10.80
2022-11-07T05:39:09.372Z,10.90
2022-11-07T05:41:37.558Z,10.80
2022-11-07T05:44:05.849Z,11.50
2022-11-07T05:46:35.037Z,10.90
2022-11-07T05:49:02.934Z,10.90
2022-11-07T05:51:30.827Z,10.90
2022-11-07T05:53:58.709Z,11.20
2022-11-07T05:56:26.689Z,11.00
2022-11-07T05:58:54.702Z,11.10
2022-11-07T06:01:22.731Z,11.00
2022-11-07T06:03:52.026Z,11.80
2022-11-07T06:06:19.912Z,11.10
2022-11-07T06:08:47.804Z,11.10
2022-11-07T06:11:15.898Z,11.10
2022-11-07T06:13:43.801Z,11.10
2022-11-07T06:16:11.969Z,11.10
2022-11-07T06:18:41.850Z,11.10
2022-11-07T06:21:11.338Z,11.70
2022-11-07T06:23:39.223Z,11.10
2022-11-07T06:26:07.185Z,11.10
2022-11-07T06:28:35.327Z,11.10
2022-11-07T06:31:04.371Z,11.10
2022-11-07T06:33:32.578Z,11.00
2022-11-07T06:36:06.372Z,11.00
2022-11-07T06:38:35.970Z,11.00
2022-11-07T06:41:08.362Z,11.10
2022-11-07T06:43:36.325Z,11.10
2022-11-07T06:46:06.234Z,11.10
2022-11-07T06:48:34.625Z,11.20
2022-11-07T06:51:03.726Z,11.20
2022-11-07T06:53:31.974Z,11.20
2022-11-07T06:56:03.086Z,11.20
2022-11-07T06:58:30.993Z,11.80
2022-11-07T07:01:02.260Z,11.30
2022-11-07T07:03:30.292Z,11.30
2022-11-07T07:06:02.075Z,11.30
2022-11-07T07:08:30.052Z,13.10
2022-11-07T07:10:58.105Z,11.40
2022-11-07T07:13:27.373Z,11.40
2022-11-07T07:15:56.037Z,12.00
2022-11-07T07:18:24.245Z,11.40
2022-11-07T07:20:53.177Z,11.40
2022-11-07T07:23:21.856Z,12.70
2022-11-07T07:25:50.157Z,11.40
2022-11-07T07:28:18.013Z,11.50
2022-11-07T07:30:51.592Z,11.50
2022-11-07T07:33:20.107Z,11.50
2022-11-07T07:35:48.037Z,11.50
2022-11-07T07:38:15.946Z,11.50
2022-11-07T07:40:43.847Z,11.50
2022-11-07T07:43:11.767Z,13.30
2022-11-07T07:45:39.715Z,12.80
2022-11-07T07:48:09.433Z,11.60
2022-11-07T07:50:37.681Z,11.60
2022-11-07T07:53:09.034Z,11.70
2022-11-07T07:55:37.296Z,12.60
2022-11-07T07:58:05.179Z,11.70
2022-11-07T08:00:33.203Z,11.70
2022-11-07T08:03:01.967Z,11.80
2022-11-07T08:05:31.288Z,11.80
2022-11-07T08:07:59.259Z,11.90
2022-11-07T08:10:41.671Z,11.90
2022-11-07T08:13:10.554Z,11.90
2022-11-07T08:15:38.502Z,12.00
2022-11-07T08:18:06.575Z,13.20
2022-11-07T08:20:35.793Z,12.00
2022-11-07T08:23:04.616Z,12.00
2022-11-07T08:25:33.245Z,12.00
2022-11-07T08:28:01.578Z,13.00
2022-11-07T08:30:31.652Z,12.00
2022-11-07T08:33:01.633Z,13.50
2022-11-07T08:35:29.693Z,12.00
2022-11-07T08:37:59.276Z,12.00
2022-11-07T08:40:27.973Z,12.00
2022-11-07T08:43:01.038Z,12.00
2022-11-07T08:45:29.054Z,12.00
2022-11-07T08:48:00.337Z,12.00
2022-11-07T08:50:28.793Z,12.00
2022-11-07T08:53:02.757Z,12.20
2022-11-07T08:55:31.394Z,13.30
2022-11-07T08:58:00.207Z,12.10
2022-11-07T09:00:28.487Z,12.10
2022-11-07T09:05:44.397Z,12.20
2022-11-07T09:08:13.693Z,13.20
2022-11-07T09:10:41.613Z,12.20
2022-11-07T09:13:10.092Z,12.30
2022-11-07T09:15:37.981Z,12.30
2022-11-07T09:18:06.705Z,12.40
2022-11-07T09:20:35.469Z,12.40
2022-11-07T09:23:03.393Z,12.50
2022-11-07T09:25:32.633Z,12.50
2022-11-07T09:28:03.547Z,13.60
2022-11-07T09:30:31.446Z,12.60
2022-11-07T09:32:59.404Z,14.30
2022-11-07T09:35:27.831Z,12.60
2022-11-07T09:37:55.802Z,12.70
2022-11-07T09:40:31.728Z,11.70
2022-11-07T09:43:11.876Z,12.80
2022-11-07T09:45:52.490Z,13.20
2022-11-07T09:48:25.292Z,12.90
2022-11-07T09:50:53.717Z,12.90
2022-11-07T09:53:31.210Z,14.70
2022-11-07T09:56:01.632Z,12.90
2022-11-07T09:58:34.700Z,12.90
2022-11-07T10:01:06.840Z,12.90
2022-11-07T10:03:35.938Z,14.10
2022-11-07T10:06:11.987Z,13.00
2022-11-07T10:08:47.548Z,13.00
2022-11-07T10:11:25.718Z,13.00
2022-11-07T10:14:07.483Z,13.80
2022-11-07T10:16:47.605Z,13.10
2022-11-07T10:19:29.621Z,13.10
2022-11-07T10:22:09.037Z,13.40
2022-11-07T10:24:49.334Z,14.20
2022-11-07T10:27:17.186Z,13.30
2022-11-07T10:29:52.270Z,14.90
2022-11-07T10:32:24.903Z,13.90
2022-11-07T10:35:15.796Z,13.40
2022-11-07T10:37:43.990Z,15.20
2022-11-07T10:40:17.178Z,13.50
2022-11-07T10:42:46.854Z,13.50
2022-11-07T10:45:18.192Z,14.70
2022-11-07T10:47:57.347Z,13.50
2022-11-07T10:50:26.655Z,14.60
2022-11-07T10:52:55.964Z,13.60
2022-11-07T10:55:27.522Z,14.20
2022-11-07T10:57:59.551Z,14.50
2022-11-07T11:00:30.350Z,13.90
2022-11-07T11:02:58.793Z,14.00
2022-11-07T11:05:29.369Z,14.90
2022-11-07T11:07:59.048Z,14.30
2022-11-07T11:10:30.965Z,14.40
2022-11-07T11:12:58.876Z,15.50
2022-11-07T11:15:34.375Z,15.60
2022-11-07T11:18:06.217Z,15.10
2022-11-07T11:20:38.585Z,14.80
2022-11-07T11:23:09.024Z,14.90
2022-11-07T11:25:47.249Z,15.00
2022-11-07T11:28:23.831Z,15.60
2022-11-07T11:30:58.956Z,15.00
2022-11-07T11:33:32.922Z,16.10
2022-11-07T11:36:05.298Z,16.00
2022-11-07T11:38:37.474Z,15.90
2022-11-07T11:41:14.854Z,15.60
2022-11-07T11:43:48.565Z,14.90
2022-11-07T11:46:24.974Z,15.30
2022-11-07T11:48:55.707Z,15.70
2022-11-07T11:51:37.529Z,15.90
2022-11-07T11:54:09.800Z,15.40
2022-11-07T11:56:51.109Z,15.10
2022-11-07T11:59:44.598Z,15.60
2022-11-07T12:02:39.831Z,15.10
2022-11-07T12:05:19.421Z,15.90
2022-11-07T12:08:00.094Z,15.20
2022-11-07T12:10:35.401Z,15.80
2022-11-07T12:13:14.343Z,15.90
2022-11-07T12:15:52.660Z,15.60
2022-11-07T12:18:29.967Z,15.50
2022-11-07T12:21:08.324Z,16.60
2022-11-07T12:23:52.582Z,16.20
2022-11-07T12:26:27.329Z,16.20
2022-11-07T12:29:04.959Z,15.50
2022-11-07T12:31:43.282Z,16.00
2022-11-07T12:34:25.466Z,16.40
2022-11-07T12:37:07.746Z,16.20
2022-11-07T12:39:54.434Z,15.40
2022-11-07T12:42:30.934Z,15.90
2022-11-07T12:45:11.305Z,15.60
2022-11-07T12:48:01.566Z,15.40
2022-11-07T12:50:40.538Z,14.70
2022-11-07T12:53:28.945Z,15.60
2022-11-07T12:56:02.990Z,15.60
2022-11-07T12:58:33.341Z,15.80
2022-11-07T13:01:02.675Z,15.70
2022-11-07T13:03:46.568Z,15.00
2022-11-07T13:06:24.389Z,14.40
2022-11-07T13:08:59.865Z,14.40
2022-11-07T13:11:37.425Z,14.60
2022-11-07T13:14:25.293Z,15.20
2022-11-07T13:17:03.994Z,15.00
2022-11-07T13:19:33.949Z,14.30
2022-11-07T13:22:06.051Z,14.20
2022-11-07T13:24:36.372Z,14.40
2022-11-07T13:27:16.183Z,13.90
2022-11-07T13:29:45.210Z,13.80
2022-11-07T13:32:14.681Z,15.30
2022-11-07T13:34:54.964Z,14.40
2022-11-07T13:37:27.995Z,13.50
2022-11-07T13:40:00.884Z,13.70
2022-11-07T13:42:31.365Z,13.70
2022-11-07T13:45:08.299Z,13.60
2022-11-07T13:47:42.735Z,14.40
2022-11-07T13:50:20.739Z,14.90
2022-11-07T13:52:57.886Z,15.10
2022-11-07T13:55:30.225Z,15.20
2022-11-07T13:58:03.959Z,13.70
2022-11-07T14:00:34.658Z,13.70
2022-11-07T14:03:03.211Z,13.60
2022-11-07T14:05:34.840Z,14.90
2022-11-07T14:08:07.332Z,13.60
2022-11-07T14:10:40.413Z,13.60
2022-11-07T14:13:10.091Z,13.60
2022-11-07T14:15:45.239Z,13.60
2022-11-07T14:18:15.283Z,13.60
2022-11-07T14:20:47.462Z,13.70
2022-11-07T14:23:17.691Z,15.00
2022-11-07T14:25:54.434Z,13.80
2022-11-07T14:28:22.323Z,14.80
2022-11-07T14:30:51.640Z,14.60
2022-11-07T14:33:22.009Z,13.70
2022-11-07T14:35:52.820Z,13.70
2022-11-07T14:38:25.229Z,14.80
2022-11-07T14:40:55.502Z,14.50
2022-11-07T14:43:25.890Z,14.80
2022-11-07T14:46:16.589Z,14.50
2022-11-07T14:48:45.950Z,13.50
2022-11-07T14:51:17.273Z,13.90
2022-11-07T14:53:54.099Z,13.50
2022-11-07T14:56:26.901Z,13.50
2022-11-07T14:58:55.275Z,13.50
2022-11-07T15:01:28.395Z,14.70
2022-11-07T15:03:59.527Z,13.40
2022-11-07T15:06:33.902Z,15.10
2022-11-07T15:09:05.931Z,13.40
2022-11-07T15:11:35.074Z,13.40
2022-11-07T15:14:05.425Z,13.40
2022-11-07T15:16:38.768Z,14.50
2022-11-07T15:19:08.752Z,13.40
2022-11-07T15:21:38.290Z,13.90
2022-11-07T15:24:33.432Z,13.40
2022-11-07T15:27:02.285Z,13.30
2022-11-07T15:29:33.722Z,13.60
2022-11-07T15:32:07.981Z,15.10
2022-11-07T15:34:58.729Z,13.30
2022-11-07T15:37:26.514Z,13.30
2022-11-07T15:39:55.721Z,13.30
2022-11-07T15:42:23.594Z,14.90
2022-11-07T15:44:51.477Z,13.30
2022-11-07T15:47:21.788Z,14.40
2022-11-07T15:49:50.082Z,13.20
2022-11-07T15:52:17.972Z,13.20
2022-11-07T15:54:46.033Z,13.50
2022-11-07T15:57:15.294Z,13.20
2022-11-07T15:59:43.653Z,13.20
2022-11-07T16:02:16.664Z,13.20
2022-11-07T16:04:44.660Z,14.20
2022-11-07T16:07:17.595Z,13.10
2022-11-07T16:09:48.358Z,13.10
2022-11-07T16:12:19.806Z,13.10
2022-11-07T16:14:47.707Z,13.10
2022-11-07T16:17:18.132Z,14.80
2022-11-07T16:19:47.248Z,13.10
2022-11-07T16:22:16.754Z,13.10
2022-11-07T16:24:44.759Z,13.10
2022-11-07T16:27:18.525Z,14.70
2022-11-07T16:29:46.562Z,14.90
2022-11-07T16:32:18.383Z,14.40
2022-11-07T16:34:47.110Z,14.00
2022-11-07T16:37:15.039Z,13.10
2022-11-07T16:39:43.002Z,13.10
2022-11-07T16:42:14.553Z,13.80
2022-11-07T16:44:43.984Z,14.00
2022-11-07T16:47:15.276Z,13.40
2022-11-07T16:49:43.542Z,13.20
2022-11-07T16:52:14.639Z,13.60
2022-11-07T16:54:42.788Z,13.20
2022-11-07T16:57:13.160Z,14.30
2022-11-07T16:59:43.799Z,13.90
2022-11-07T17:02:20.862Z,14.00
2022-11-07T17:04:49.559Z,13.20
2022-11-07T17:07:18.931Z,14.90
2022-11-07T17:09:47.065Z,13.60
2022-11-07T17:12:17.610Z,13.30
2022-11-07T17:14:47.202Z,14.30
2022-11-07T17:17:17.092Z,13.30
2022-11-07T17:19:45.051Z,13.30
2022-11-07T17:22:13.021Z,14.50
2022-11-07T17:24:43.055Z,14.90
2022-11-07T17:27:20.306Z,14.10
2022-11-07T17:29:49.758Z,13.30
2022-11-07T17:32:17.723Z,13.30
2022-11-07T17:34:46.724Z,14.10
2022-11-07T17:37:21.051Z,13.30
2022-11-07T17:39:49.117Z,13.30
2022-11-07T17:42:17.130Z,14.20
2022-11-07T17:44:45.057Z,15.10
2022-11-07T17:47:29.956Z,14.80
2022-11-07T17:49:58.124Z,13.80
2022-11-07T17:52:26.142Z,14.20
2022-11-07T17:54:54.863Z,13.80
2022-11-07T17:57:22.872Z,13.30
2022-11-07T17:59:51.740Z,14.20
2022-11-07T18:02:20.966Z,13.30
2022-11-07T18:04:50.313Z,13.80
2022-11-07T18:07:18.664Z,13.50
2022-11-07T18:09:49.332Z,13.30
2022-11-07T18:12:17.326Z,13.30
2022-11-07T18:14:45.401Z,15.00
2022-11-07T18:17:13.447Z,13.40
2022-11-07T18:19:41.469Z,13.40
2022-11-07T18:22:10.725Z,13.40
2022-11-07T18:24:38.631Z,13.40
2022-11-07T18:27:10.280Z,13.40
2022-11-07T18:29:40.513Z,13.40
2022-11-07T18:32:08.543Z,13.40
2022-11-07T18:34:36.714Z,13.40
2022-11-07T18:37:04.728Z,14.90
2022-11-07T18:39:34.432Z,13.30
2022-11-07T18:42:02.357Z,14.80
2022-11-07T18:44:30.251Z,14.70
2022-11-07T18:46:58.436Z,13.30
2022-11-07T18:49:26.379Z,14.10
2022-11-07T18:51:54.315Z,14.50
2022-11-07T18:54:23.288Z,14.60
2022-11-07T18:56:52.830Z,15.00
2022-11-07T18:59:21.085Z,14.90
2022-11-07T19:01:49.095Z,13.40
2022-11-07T19:04:17.081Z,14.20
2022-11-07T19:06:56.909Z,13.40
2022-11-07T19:09:27.745Z,14.50
2022-11-07T19:11:57.723Z,14.50
2022-11-07T19:14:25.751Z,14.00
2022-11-07T19:16:53.714Z,14.40
2022-11-07T19:19:21.664Z,14.30
2022-11-07T19:21:49.768Z,13.90
2022-11-07T19:24:17.957Z,14.40
2022-11-07T19:26:46.057Z,14.40
2022-11-07T19:29:16.538Z,14.20
2022-11-07T19:31:44.566Z,13.90
2022-11-07T19:34:12.500Z,14.00
2022-11-07T19:36:40.383Z,13.10
2022-11-07T19:39:08.265Z,13.10
2022-11-07T19:41:36.158Z,14.80
2022-11-07T19:44:04.435Z,14.70
2022-11-07T19:46:33.768Z,13.00
2022-11-07T19:49:01.653Z,14.00
2022-11-07T19:51:29.578Z,14.60
2022-11-07T19:53:59.229Z,13.00
2022-11-07T19:56:28.886Z,13.00
2022-11-07T19:58:56.966Z,13.90
2022-11-07T20:01:27.648Z,14.30
2022-11-07T20:03:57.593Z,14.70
2022-11-07T20:06:27.609Z,13.70
2022-11-07T20:08:55.476Z,13.10
2022-11-07T20:11:25.246Z,13.10
2022-11-07T20:13:58.653Z,13.10
2022-11-07T20:16:29.811Z,14.10
2022-11-07T20:18:59.045Z,13.10
2022-11-07T20:21:28.964Z,13.00
2022-11-07T20:23:59.242Z,13.70
2022-11-07T20:26:29.236Z,13.10
2022-11-07T20:28:57.305Z,13.10
2022-11-07T20:31:28.184Z,13.10
2022-11-07T20:34:00.149Z,13.10
2022-11-07T20:36:28.107Z,13.70
2022-11-07T20:38:56.677Z,13.20
2022-11-07T20:41:27.027Z,14.00
2022-11-07T20:43:55.343Z,14.00
2022-11-07T20:46:23.421Z,13.80
2022-11-07T20:48:51.294Z,14.40
2022-11-07T20:51:22.337Z,13.90
2022-11-07T20:53:50.915Z,13.40
2022-11-07T20:56:20.241Z,13.30
2022-11-07T20:58:49.013Z,14.40
2022-11-07T21:01:19.813Z,14.40
2022-11-07T21:03:48.714Z,13.30
2022-11-07T21:06:17.055Z,14.50
2022-11-07T21:08:48.544Z,14.30
2022-11-07T21:11:17.348Z,13.60
2022-11-07T21:13:51.484Z,14.30
2022-11-07T21:16:21.709Z,14.30
2022-11-07T21:18:49.696Z,14.20
2022-11-07T21:21:20.571Z,13.30
2022-11-07T21:23:50.927Z,13.90
2022-11-07T21:26:21.417Z,14.70
2022-11-07T21:28:49.346Z,13.40
2022-11-07T21:31:23.519Z,13.60
2022-11-07T21:33:51.525Z,14.00
2022-11-07T21:36:22.127Z,13.50
2022-11-07T21:38:51.727Z,13.60
2022-11-07T21:41:19.643Z,14.60
2022-11-07T21:43:47.800Z,14.10
2022-11-07T21:46:18.388Z,13.40
2022-11-07T21:48:47.374Z,15.10
2022-11-07T21:51:17.413Z,13.40
2022-11-07T21:53:46.245Z,13.40
2022-11-07T21:56:17.728Z,13.50
2022-11-07T21:58:45.645Z,13.50
2022-11-07T22:01:13.584Z,14.70
2022-11-07T22:04:05.410Z,14.50
2022-11-07T22:06:30.262Z,14.30
2022-11-07T22:08:58.155Z,13.70
2022-11-07T22:11:27.560Z,14.70
2022-11-07T22:13:55.717Z,14.60
2022-11-07T22:16:23.742Z,13.60
2022-11-07T22:18:51.859Z,15.10
2022-11-07T22:21:21.444Z,15.10
2022-11-07T22:23:49.828Z,14.60
2022-11-07T22:26:19.938Z,14.30
2022-11-07T22:28:49.904Z,14.10
2022-11-07T22:31:20.398Z,14.30
2022-11-07T22:33:48.608Z,14.40
2022-11-07T22:36:17.177Z,13.60
2022-11-07T22:38:45.532Z,13.60
2022-11-07T22:41:16.509Z,14.70
2022-11-07T22:43:44.681Z,13.80
2022-11-07T22:46:16.424Z,13.60
2022-11-07T22:48:45.018Z,13.90
2022-11-07T22:51:14.894Z,13.60
2022-11-07T22:53:43.022Z,13.60
2022-11-07T22:56:11.922Z,14.40
2022-11-07T22:58:40.373Z,15.20
2022-11-07T23:01:15.999Z,13.60
2022-11-07T23:03:44.250Z,13.60
2022-11-07T23:06:12.374Z,14.10
2022-11-07T23:08:40.590Z,13.50
2022-11-07T23:11:44.805Z,13.60
2022-11-07T23:14:02.899Z,13.40
2022-11-07T23:16:35.756Z,13.70
2022-11-07T23:19:06.577Z,14.20
2022-11-07T23:21:35.011Z,14.40
2022-11-07T23:24:03.683Z,14.40
2022-11-07T23:26:34.453Z,14.40
2022-11-07T23:29:08.986Z,13.40
2022-11-07T23:31:40.136Z,13.30
2022-11-07T23:34:08.965Z,13.60
2022-11-07T23:36:37.271Z,14.10
2022-11-07T23:39:06.384Z,14.20
2022-11-07T23:41:34.980Z,13.20
2022-11-07T23:44:03.379Z,13.20
2022-11-07T23:46:48.580Z,14.70
2022-11-07T23:49:35.182Z,14.20
2022-11-07T23:52:03.367Z,13.10
2022-11-07T23:54:48.597Z,13.70
2022-11-07T23:57:16.553Z,13.10
